createdAt,value
2023-03-29T00:00:58.007Z,3.062
2023-03-29T00:04:00.440Z,3.187
2023-03-29T00:06:59.609Z,3.312
2023-03-29T00:10:01.385Z,3.375
2023-03-29T00:12:58.669Z,3.375
2023-03-29T00:15:59.646Z,3.312
2023-03-29T00:18:59.458Z,3.312
2023-03-29T00:21:58.174Z,3.187
2023-03-29T00:24:57.934Z,3.375
2023-03-29T00:27:57.951Z,3.437
2023-03-29T00:30:59.762Z,3.437
2023-03-29T00:34:00.192Z,3.437
2023-03-29T00:36:58.873Z,3.5
2023-03-29T00:39:58.983Z,3.437
2023-03-29T00:42:59.503Z,3.5
2023-03-29T00:45:59.340Z,3.375
2023-03-29T00:48:59.521Z,3.25
2023-03-29T00:51:59.801Z,3.187
2023-03-29T00:54:58.893Z,3.187
2023-03-29T00:57:59.028Z,3.125
2023-03-29T01:00:59.783Z,3.187
2023-03-29T01:03:59.765Z,3.187
2023-03-29T01:07:00.237Z,3.312
2023-03-29T01:09:58.872Z,3.312
2023-03-29T01:12:59.467Z,3.312
2023-03-29T01:15:59.218Z,3.25
2023-03-29T01:19:00.005Z,3.375
2023-03-29T01:21:58.783Z,3.375
2023-03-29T01:24:59.083Z,3.375
2023-03-29T01:27:58.352Z,3.25
2023-03-29T01:30:59.088Z,3.125
2023-03-29T01:33:58.990Z,3.187
2023-03-29T01:36:59.431Z,3.125
2023-03-29T01:39:58.563Z,3.125
2023-03-29T01:42:58.926Z,3.125
2023-03-29T01:45:59.927Z,3.187
2023-03-29T01:48:58.161Z,3.062
2023-03-29T01:51:58.152Z,3.125
2023-03-29T01:54:59.059Z,3.062
2023-03-29T01:57:59.636Z,3.0
2023-03-29T02:00:59.289Z,2.937
2023-03-29T02:03:58.256Z,2.937
2023-03-29T02:07:00.376Z,2.937
2023-03-29T02:09:59.500Z,2.937
2023-03-29T02:12:58.226Z,3.062
2023-03-29T02:15:59.486Z,3.062
2023-03-29T02:18:58.181Z,3.062
2023-03-29T02:21:58.523Z,3.062
2023-03-29T02:24:58.726Z,3.125
2023-03-29T02:27:59.275Z,3.125
2023-03-29T02:30:59.967Z,3.125
2023-03-29T02:33:59.154Z,3.125
2023-03-29T02:36:58.378Z,3.25
2023-03-29T02:39:58.767Z,3.25
2023-03-29T02:42:59.735Z,3.25
2023-03-29T02:45:59.276Z,3.25
2023-03-29T02:48:59.135Z,3.312
2023-03-29T02:51:57.470Z,3.312
2023-03-29T02:54:58.871Z,3.312
2023-03-29T02:58:00.281Z,3.375
2023-03-29T03:00:59.895Z,3.312
2023-03-29T03:03:57.794Z,3.312
2023-03-29T03:06:59.338Z,3.312
2023-03-29T03:09:59.551Z,3.25
2023-03-29T03:12:58.271Z,3.187
2023-03-29T03:15:59.254Z,3.187
2023-03-29T03:18:58.787Z,3.187
2023-03-29T03:21:59.728Z,3.187
2023-03-29T03:24:58.948Z,3.187
2023-03-29T03:27:59.443Z,3.187
2023-03-29T03:31:00.437Z,3.25
2023-03-29T03:33:58.158Z,3.25
2023-03-29T03:36:58.733Z,3.187
2023-03-29T03:39:59.269Z,3.187
2023-03-29T03:42:58.237Z,3.25
2023-03-29T03:45:58.802Z,3.187
2023-03-29T03:48:58.269Z,3.312
2023-03-29T03:51:58.852Z,3.375
2023-03-29T03:54:57.776Z,3.375
2023-03-29T03:57:59.634Z,3.5
2023-03-29T04:01:00.032Z,3.625
2023-03-29T04:03:58.113Z,3.75
2023-03-29T04:06:59.977Z,3.75
2023-03-29T04:09:58.617Z,3.75
2023-03-29T04:12:59.819Z,3.875
2023-03-29T04:16:01.548Z,3.937
2023-03-29T04:18:59.292Z,4.0
2023-03-29T04:21:58.643Z,4.062
2023-03-29T04:25:02.969Z,4.125
2023-03-29T04:27:58.246Z,4.125
2023-03-29T04:31:00.516Z,4.125
2023-03-29T04:34:00.406Z,4.25
2023-03-29T04:36:59.224Z,4.375
2023-03-29T04:39:58.187Z,4.437
2023-03-29T04:42:58.550Z,4.25
2023-03-29T04:45:58.544Z,4.25
2023-03-29T04:48:59.479Z,4.25
2023-03-29T04:51:59.438Z,4.125
2023-03-29T04:54:58.933Z,4.0
2023-03-29T04:57:59.835Z,3.937
2023-03-29T05:00:59.839Z,3.937
2023-03-29T05:03:58.738Z,4.0
2023-03-29T05:06:58.690Z,4.0
2023-03-29T05:09:59.416Z,3.937
2023-03-29T05:12:59.007Z,3.937
2023-03-29T05:15:57.943Z,4.0
2023-03-29T05:18:59.039Z,4.062
2023-03-29T05:22:00.115Z,4.062
2023-03-29T05:24:58.993Z,4.125
2023-03-29T05:27:59.552Z,4.25
2023-03-29T05:31:00.759Z,4.312
2023-03-29T05:33:58.865Z,4.312
2023-03-29T05:36:58.512Z,4.312
2023-03-29T05:40:05.632Z,4.312
2023-03-29T05:42:59.170Z,4.437
2023-03-29T05:45:59.870Z,4.437
2023-03-29T05:48:58.589Z,4.562
2023-03-29T05:51:58.995Z,4.687
2023-03-29T05:55:01.088Z,4.687
2023-03-29T05:58:00.035Z,4.687
2023-03-29T06:01:00.513Z,4.687
2023-03-29T06:03:58.762Z,4.75
2023-03-29T06:06:59.321Z,4.75
2023-03-29T06:10:00.591Z,4.812
2023-03-29T06:12:58.004Z,4.812
2023-03-29T06:15:59.236Z,5.0
2023-03-29T06:18:59.817Z,5.187
2023-03-29T06:21:58.355Z,5.312
2023-03-29T06:24:59.444Z,5.312
2023-03-29T06:27:58.274Z,5.562
2023-03-29T06:31:00.620Z,5.687
2023-03-29T06:33:58.295Z,5.812
2023-03-29T06:36:59.536Z,6.0
2023-03-29T06:39:59.144Z,6.0
2023-03-29T06:42:58.469Z,6.0
2023-03-29T06:45:59.485Z,6.25
2023-03-29T06:48:59.283Z,6.25
2023-03-29T06:51:58.783Z,6.312
2023-03-29T06:54:59.059Z,6.312
2023-03-29T06:58:01.730Z,6.375
2023-03-29T07:01:00.137Z,6.5
2023-03-29T07:03:58.291Z,6.562
2023-03-29T07:06:59.638Z,6.562
2023-03-29T07:09:58.248Z,6.5
2023-03-29T07:12:58.873Z,6.937
2023-03-29T07:15:59.268Z,7.125
2023-03-29T07:18:57.639Z,7.25
2023-03-29T07:21:59.970Z,7.25
2023-03-29T07:24:59.751Z,7.312
2023-03-29T07:27:58.117Z,7.25
2023-03-29T07:31:00.026Z,7.312
2023-03-29T07:33:58.314Z,7.312
2023-03-29T07:36:58.277Z,7.687
2023-03-29T07:39:59.613Z,7.75
2023-03-29T07:43:00.375Z,7.75
2023-03-29T07:45:59.591Z,7.75
2023-03-29T07:48:58.850Z,7.875
2023-03-29T07:51:58.598Z,7.687
2023-03-29T07:54:59.933Z,7.687
2023-03-29T07:57:59.073Z,7.687
2023-03-29T08:00:59.457Z,7.75
2023-03-29T08:03:58.438Z,7.875
2023-03-29T08:06:58.896Z,7.937
2023-03-29T08:09:59.211Z,8.187
2023-03-29T08:13:00.022Z,8.187
2023-03-29T08:16:00.140Z,8.5
2023-03-29T08:18:59.631Z,8.5
2023-03-29T08:21:59.041Z,8.812
2023-03-29T08:24:59.310Z,8.875
2023-03-29T08:27:59.077Z,8.812
2023-03-29T08:30:59.759Z,8.812
2023-03-29T08:33:58.216Z,8.75
2023-03-29T08:36:59.012Z,8.75
2023-03-29T08:39:58.824Z,8.75
2023-03-29T08:43:00.849Z,8.812
2023-03-29T08:45:58.661Z,8.812
2023-03-29T08:48:59.604Z,9.0
2023-03-29T08:51:59.441Z,9.0
2023-03-29T08:54:59.776Z,9.5
2023-03-29T08:57:59.249Z,9.812
2023-03-29T09:01:01.250Z,9.875
2023-03-29T09:03:59.007Z,9.625
2023-03-29T09:06:58.528Z,9.625
2023-03-29T09:09:59.090Z,9.562
2023-03-29T09:12:57.588Z,9.375
2023-03-29T09:15:58.977Z,9.375
2023-03-29T09:18:59.633Z,9.375
2023-03-29T09:21:59.508Z,9.5
2023-03-29T09:24:59.752Z,9.562
2023-03-29T09:27:58.962Z,9.125
2023-03-29T09:30:59.702Z,9.625
2023-03-29T09:33:58.485Z,9.625
2023-03-29T09:36:58.098Z,9.625
2023-03-29T09:39:58.764Z,9.75
2023-03-29T09:42:59.277Z,9.875
2023-03-29T09:45:59.704Z,9.875
2023-03-29T09:48:58.509Z,9.812
2023-03-29T09:51:58.764Z,9.812
2023-03-29T09:54:58.886Z,9.75
2023-03-29T09:57:59.979Z,9.562
2023-03-29T10:00:58.363Z,9.75
2023-03-29T10:03:58.277Z,9.875
2023-03-29T10:06:58.826Z,10.187
2023-03-29T10:09:58.557Z,10.625
2023-03-29T10:12:59.222Z,10.875
2023-03-29T10:15:58.926Z,10.625
2023-03-29T10:18:59.583Z,10.562
2023-03-29T10:21:58.312Z,10.812
2023-03-29T10:24:59.263Z,10.875
2023-03-29T10:27:58.371Z,11.5
2023-03-29T10:30:59.815Z,11.5
2023-03-29T10:33:58.716Z,11.625
2023-03-29T10:36:59.140Z,11.625
2023-03-29T10:39:59.934Z,11.875
2023-03-29T10:42:57.623Z,12.125
2023-03-29T10:45:58.635Z,11.937
2023-03-29T10:48:58.103Z,11.812
2023-03-29T10:51:59.446Z,11.625
2023-03-29T10:54:58.542Z,11.687
2023-03-29T10:57:59.321Z,11.625
2023-03-29T11:01:00.510Z,11.625
2023-03-29T11:04:17.833Z,11.75
2023-03-29T11:06:58.740Z,11.812
2023-03-29T11:09:59.706Z,11.437
2023-03-29T11:12:59.199Z,11.75
2023-03-29T11:16:00.051Z,11.75
2023-03-29T11:18:58.883Z,11.75
2023-03-29T11:22:00.158Z,11.75
2023-03-29T11:24:58.970Z,11.937
2023-03-29T11:27:59.989Z,12.312
2023-03-29T11:30:58.622Z,12.25
2023-03-29T11:33:57.984Z,12.25
2023-03-29T11:36:59.168Z,12.25
2023-03-29T11:39:58.216Z,12.875
2023-03-29T11:42:59.231Z,13.875
2023-03-29T11:45:59.253Z,13.0
2023-03-29T11:48:59.770Z,12.812
2023-03-29T11:51:59.169Z,12.875
2023-03-29T11:54:59.644Z,12.937
2023-03-29T11:57:58.997Z,13.0
2023-03-29T12:00:58.535Z,12.75
2023-03-29T12:03:58.860Z,12.75
2023-03-29T12:06:59.636Z,12.625
2023-03-29T12:09:59.186Z,12.5
2023-03-29T12:12:58.607Z,12.25
2023-03-29T12:15:58.721Z,12.187
2023-03-29T12:18:58.730Z,12.312
2023-03-29T12:21:59.265Z,12.312
2023-03-29T12:24:58.916Z,12.437
2023-03-29T12:27:58.125Z,12.437
2023-03-29T12:30:58.519Z,12.875
2023-03-29T12:34:00.008Z,12.937
2023-03-29T12:36:59.048Z,12.937
2023-03-29T12:39:59.332Z,13.312
2023-03-29T12:42:58.346Z,13.312
2023-03-29T12:46:00.862Z,13.625
2023-03-29T12:48:58.683Z,13.562
2023-03-29T12:51:57.829Z,13.625
2023-03-29T12:54:58.320Z,13.625
2023-03-29T12:57:58.334Z,13.937
2023-03-29T13:00:59.197Z,13.562
2023-03-29T13:03:58.723Z,13.875
2023-03-29T13:06:58.772Z,13.562
2023-03-29T13:09:58.039Z,13.437
2023-03-29T13:12:58.218Z,13.625
2023-03-29T13:15:58.033Z,13.125
2023-03-29T13:18:59.170Z,13.062
2023-03-29T13:21:58.813Z,12.875
2023-03-29T13:24:58.048Z,13.0
2023-03-29T13:28:00.304Z,13.187
2023-03-29T13:30:57.723Z,13.187
2023-03-29T13:33:58.598Z,13.062
2023-03-29T13:36:58.473Z,13.062
2023-03-29T13:39:58.509Z,13.062
2023-03-29T13:42:58.637Z,13.125
2023-03-29T13:46:00.197Z,12.937
2023-03-29T13:48:58.059Z,12.812
2023-03-29T13:51:59.139Z,12.812
2023-03-29T13:55:00.441Z,12.375
2023-03-29T13:57:58.902Z,12.5
2023-03-29T14:01:00.336Z,12.687
2023-03-29T14:03:58.780Z,12.75
2023-03-29T14:06:59.176Z,12.812
2023-03-29T14:09:59.502Z,12.812
2023-03-29T14:12:59.058Z,13.125
2023-03-29T14:15:59.153Z,13.125
2023-03-29T14:18:58.239Z,13.125
2023-03-29T14:21:59.700Z,13.25
2023-03-29T14:24:59.473Z,13.25
2023-03-29T14:27:58.898Z,13.625
2023-03-29T14:30:59.011Z,13.5
2023-03-29T14:34:00.724Z,13.5
2023-03-29T14:36:58.828Z,13.5
2023-03-29T14:39:59.681Z,13.937
2023-03-29T14:42:58.412Z,14.0
2023-03-29T14:45:58.439Z,14.25
2023-03-29T14:48:58.781Z,13.875
2023-03-29T14:51:58.964Z,13.75
2023-03-29T14:54:59.344Z,13.937
2023-03-29T14:58:00.268Z,13.875
2023-03-29T15:01:00.350Z,13.687
2023-03-29T15:03:59.349Z,13.875
2023-03-29T15:06:59.558Z,13.687
2023-03-29T15:09:59.769Z,13.5
2023-03-29T15:12:58.383Z,13.562
2023-03-29T15:15:58.477Z,13.375
2023-03-29T15:18:59.572Z,13.312
2023-03-29T15:22:01.767Z,13.187
2023-03-29T15:24:58.784Z,13.062
2023-03-29T15:28:01.683Z,12.937
2023-03-29T15:31:07.949Z,12.937
2023-03-29T15:33:59.591Z,12.75
2023-03-29T15:36:58.913Z,12.75
2023-03-29T15:39:59.778Z,12.687
2023-03-29T15:42:59.519Z,12.562
2023-03-29T15:46:00.659Z,12.5
2023-03-29T15:48:59.744Z,12.5
2023-03-29T15:51:59.924Z,12.625
2023-03-29T15:54:58.523Z,12.625
2023-03-29T15:57:59.553Z,12.625
2023-03-29T16:00:59.692Z,12.625
2023-03-29T16:04:00.190Z,12.625
2023-03-29T16:06:59.574Z,12.437
2023-03-29T16:09:59.580Z,12.25
2023-03-29T16:12:59.579Z,12.187
2023-03-29T16:15:58.921Z,12.125
2023-03-29T16:18:59.620Z,12.125
2023-03-29T16:21:59.429Z,12.062
2023-03-29T16:24:57.604Z,12.125
2023-03-29T16:27:58.882Z,11.937
2023-03-29T16:30:58.864Z,11.937
2023-03-29T16:33:58.867Z,12.0
2023-03-29T16:36:59.714Z,12.0
2023-03-29T16:39:59.055Z,12.0
2023-03-29T16:42:58.737Z,11.875
2023-03-29T16:45:58.320Z,11.812
2023-03-29T16:48:59.356Z,11.812
2023-03-29T16:51:57.987Z,11.75
2023-03-29T16:55:00.736Z,11.687
2023-03-29T16:57:58.617Z,11.687
2023-03-29T17:01:05.771Z,11.625
2023-03-29T17:03:59.599Z,11.625
2023-03-29T17:06:58.912Z,11.562
2023-03-29T17:09:59.445Z,11.5
2023-03-29T17:12:58.655Z,11.5
2023-03-29T17:16:07.385Z,11.5
2023-03-29T17:18:58.683Z,11.5
2023-03-29T17:21:59.977Z,11.5
2023-03-29T17:24:59.436Z,11.312
2023-03-29T17:28:00.302Z,11.312
2023-03-29T17:31:02.626Z,11.187
2023-03-29T17:33:58.553Z,11.375
2023-03-29T17:36:58.365Z,11.25
2023-03-29T17:39:59.547Z,11.062
2023-03-29T17:42:58.971Z,10.937
2023-03-29T17:45:59.611Z,11.125
2023-03-29T17:48:58.641Z,11.125
2023-03-29T17:52:00.179Z,11.375
2023-03-29T17:54:59.503Z,11.375
2023-03-29T17:57:59.823Z,11.5
2023-03-29T18:01:03.357Z,11.5
2023-03-29T18:03:59.796Z,11.25
2023-03-29T18:07:00.894Z,11.062
2023-03-29T18:09:58.727Z,11.062
2023-03-29T18:12:59.353Z,11.375
2023-03-29T18:15:59.696Z,11.562
2023-03-29T18:18:59.011Z,11.5
2023-03-29T18:21:59.274Z,11.312
2023-03-29T18:24:58.157Z,11.437
2023-03-29T18:27:58.962Z,11.375
2023-03-29T18:30:58.926Z,11.5
2023-03-29T18:33:59.656Z,11.562
2023-03-29T18:36:58.730Z,11.5
2023-03-29T18:39:58.975Z,11.187
2023-03-29T18:42:59.302Z,11.187
2023-03-29T18:46:00.015Z,11.375
2023-03-29T18:48:57.841Z,11.937
2023-03-29T18:52:01.442Z,11.937
2023-03-29T18:54:59.094Z,12.0
2023-03-29T18:58:05.770Z,12.062
2023-03-29T19:01:28.023Z,12.062
2023-03-29T19:03:59.733Z,12.25
2023-03-29T19:06:57.806Z,12.25
2023-03-29T19:09:59.406Z,12.0
2023-03-29T19:12:59.493Z,12.25
2023-03-29T19:16:00.554Z,12.312
2023-03-29T19:18:58.812Z,12.312
2023-03-29T19:22:00.405Z,12.312
2023-03-29T19:24:59.302Z,12.437
2023-03-29T19:27:58.978Z,12.375
2023-03-29T19:31:00.038Z,12.375
2023-03-29T19:33:58.736Z,12.5
2023-03-29T19:36:59.941Z,12.312
2023-03-29T19:39:59.206Z,12.187
2023-03-29T19:42:59.529Z,12.25
2023-03-29T19:46:00.205Z,12.312
2023-03-29T19:48:58.678Z,12.25
2023-03-29T19:52:00.014Z,12.25
2023-03-29T19:54:59.563Z,12.25
2023-03-29T19:57:58.873Z,12.187
2023-03-29T20:00:59.408Z,12.375
2023-03-29T20:03:59.687Z,12.312
2023-03-29T20:06:59.959Z,12.125
2023-03-29T20:09:59.055Z,12.125
2023-03-29T20:12:59.161Z,12.125
2023-03-29T20:15:59.063Z,12.0
2023-03-29T20:18:58.529Z,12.312
2023-03-29T20:21:58.880Z,11.937
2023-03-29T20:24:59.666Z,12.125
2023-03-29T20:27:58.407Z,12.187
2023-03-29T20:30:59.687Z,12.437
2023-03-29T20:33:58.281Z,12.437
2023-03-29T20:36:59.392Z,12.562
2023-03-29T20:39:59.196Z,12.375
2023-03-29T20:42:59.720Z,12.375
2023-03-29T20:45:59.705Z,12.25
2023-03-29T20:49:00.360Z,12.187
2023-03-29T20:51:58.961Z,12.187
2023-03-29T20:54:59.037Z,12.0
2023-03-29T20:58:00.159Z,11.625
2023-03-29T21:00:59.657Z,11.75
2023-03-29T21:03:59.186Z,11.625
2023-03-29T21:06:59.895Z,11.312
2023-03-29T21:09:58.338Z,11.437
2023-03-29T21:12:58.416Z,11.375
2023-03-29T21:15:59.557Z,11.375
2023-03-29T21:18:58.134Z,11.25
2023-03-29T21:21:59.082Z,11.187
2023-03-29T21:24:59.228Z,11.125
2023-03-29T21:27:57.962Z,11.312
2023-03-29T21:31:00.254Z,11.312
2023-03-29T21:33:59.570Z,11.312
2023-03-29T21:36:59.017Z,11.312
2023-03-29T21:39:59.119Z,11.312
2023-03-29T21:42:59.299Z,11.25
2023-03-29T21:45:59.840Z,11.375
2023-03-29T21:48:59.402Z,11.187
2023-03-29T21:51:58.814Z,11.125
2023-03-29T21:54:58.359Z,11.125
2023-03-29T21:57:59.273Z,11.312
2023-03-29T22:00:58.875Z,11.375
2023-03-29T22:03:59.512Z,11.312
2023-03-29T22:06:58.347Z,11.312
2023-03-29T22:09:59.629Z,11.312
2023-03-29T22:12:58.964Z,11.375
2023-03-29T22:15:59.392Z,11.375
2023-03-29T22:18:59.736Z,11.375
2023-03-29T22:21:58.990Z,11.375
2023-03-29T22:25:00.097Z,11.375
2023-03-29T22:27:58.514Z,11.375
2023-03-29T22:31:00.307Z,11.375
2023-03-29T22:33:58.135Z,11.0
2023-03-29T22:36:58.188Z,11.25
2023-03-29T22:39:59.137Z,11.25
2023-03-29T22:42:58.971Z,11.25
2023-03-29T22:45:58.167Z,11.625
2023-03-29T22:48:58.193Z,11.312
2023-03-29T22:51:59.180Z,11.25
2023-03-29T22:54:58.066Z,11.375
2023-03-29T22:57:59.093Z,11.375
2023-03-29T23:00:59.133Z,11.312
2023-03-29T23:03:59.066Z,11.312
2023-03-29T23:07:00.533Z,11.375
2023-03-29T23:09:58.491Z,11.375
2023-03-29T23:12:59.047Z,11.625
2023-03-29T23:15:59.117Z,11.625
2023-03-29T23:18:58.534Z,11.625
2023-03-29T23:21:57.978Z,11.625
2023-03-29T23:25:00.220Z,11.562
2023-03-29T23:27:59.410Z,11.562
2023-03-29T23:31:06.877Z,12.0
2023-03-29T23:33:58.959Z,12.0
2023-03-29T23:36:58.909Z,11.75
2023-03-29T23:39:59.187Z,11.812
2023-03-29T23:42:59.972Z,11.812
2023-03-29T23:45:59.820Z,11.812
2023-03-29T23:48:57.835Z,11.812
2023-03-29T23:51:58.985Z,11.562
2023-03-29T23:54:59.521Z,11.625
2023-03-29T23:57:57.135Z,11.687
